Latest Weather Observations for Liawenee

IDT60801

Issued at 8:01 am EST Tuesday 7 July 2015 (issued every 30 minutes, with the page automatically refreshed every 10 minutes)

About weather observations | Map of weather stations | Latest weather observations for TAS | Other Formats
Station Details ID: 096033 Name: LIAWENEE Lat: -41.90 Lon: 146.67 Height: 1057.0 m
Data from the previous 72 hours. | See also: Recent months at Liawenee
Date/Time
EST
Temp
°C
App
Temp
°C
Dew
Point
Rel
Hum
%
Delta-T
°C
Wind Press
QNH
hPa
Press
MSL
hPa
Rain
since 9 am
mm
Dir
 
Spd
km/h
Gust
km/h
Spd
kts
Gust
kts
07/08:00am -3.6 -6.1 -3.9 98 -0.1 CALM 0 0 0 0 1021.3 1023.8 0.0
07/07:30am -3.7 -6.2 -4.1 97 0.0 CALM 0 0 0 0 1021.1 1023.5 0.0
07/07:00am -3.7 -6.2 -4.1 97 0.0 CALM 0 0 0 0 1020.6 1023.1 0.0
07/06:30am -3.6 -6.1 -4.0 97 0.0 CALM 0 0 0 0 1020.3 1022.7 0.0
07/06:00am -3.9 -6.4 -4.4 96 0.0 CALM 0 0 0 0 1020.0 1022.4 0.0
07/05:30am -3.8 -6.3 -4.2 97 0.0 CALM 0 0 0 0 1019.6 1022.1 0.0
07/05:00am -3.8 -6.3 -4.3 96 0.0 CALM 0 0 0 0 1019.2 1021.6 0.0
07/04:30am -3.7 -6.2 -4.2 96 0.0 CALM 0 0 0 0 1019.0 1021.4 0.0
07/04:00am -3.9 -6.5 -4.6 95 0.1 CALM 0 0 0 0 1018.7 1021.1 0.0
07/03:30am -3.5 -6.0 -4.2 95 0.1 CALM 0 0 0 0 1018.8 1021.3 0.0
07/03:00am -3.5 -6.0 -4.2 95 0.1 CALM 0 0 0 0 1018.8 1021.3 0.0
07/02:30am -3.7 -6.2 -4.4 95 0.1 CALM 0 0 0 0 1018.8 1021.3 0.0
07/02:00am -4.1 -6.7 -4.8 95 0.1 CALM 0 0 0 0 1018.4 1020.8 0.0
07/01:30am -3.9 -6.4 -4.4 96 0.0 CALM 0 0 0 0 1018.0 1020.4 0.0
07/01:00am -4.1 -6.7 -4.8 95 0.1 CALM 0 0 0 0 1017.8 1020.2 0.0
07/12:30am -4.0 -6.6 -4.7 95 0.1 CALM 0 0 0 0 1017.8 1020.2 0.0
07/12:00am -3.8 -6.3 -4.2 97 0.0 CALM 0 0 0 0 1017.8 1020.2 0.0
 
Date/Time
EST
Temp
°C
App
Temp
°C
Dew
Point
Rel
Hum
%
Delta-T
°C
Wind Press
QNH
hPa
Press
MSL
hPa
Rain
since 9 am
mm
Dir
 
Spd
km/h
Gust
km/h
Spd
kts
Gust
kts
06/11:30pm -4.8 -7.5 -5.6 94 0.1 CALM 0 0 0 0 1018.0 1020.4 0.0
06/11:00pm -4.6 -7.2 -5.4 94 0.1 CALM 0 0 0 0 1017.8 1020.2 0.0
06/10:30pm -4.6 -7.3 -5.7 92 0.2 CALM 0 0 0 0 1017.6 1020.0 0.0
06/10:00pm -3.4 -6.0 -4.8 90 0.3 CALM 0 0 0 0 1017.7 1020.1 0.0
06/09:30pm -2.8 -5.3 -4.2 90 0.3 CALM 0 0 0 0 1017.6 1020.0 0.0
06/09:00pm -2.7 -5.2 -4.1 90 0.4 CALM 0 0 0 0 1017.4 1019.8 0.0
06/08:30pm -2.3 -4.8 -3.6 91 0.3 CALM 0 0 0 0 1017.1 1019.4 0.0
06/08:00pm -2.3 -4.8 -3.6 91 0.3 CALM 0 0 0 0 1016.7 1019.1 0.0
06/07:30pm -2.2 -4.7 -3.6 90 0.4 CALM 0 0 0 0 1016.5 1018.9 0.0
06/07:00pm -2.2 -4.7 -3.8 89 0.4 CALM 0 0 0 0 1016.1 1018.4 0.0
06/06:30pm -1.7 -4.1 -3.0 91 0.4 CALM 0 0 0 0 1015.7 1018.1 0.0
06/06:00pm -1.7 -4.1 -3.1 90 0.4 CALM 0 0 0 0 1015.3 1017.6 0.0
06/05:30pm -1.6 -4.0 -2.9 91 0.4 CALM 0 0 0 0 1015.0 1017.3 0.0
06/05:00pm -1.4 -3.8 -3.0 89 0.5 CALM 0 0 0 0 1014.7 1017.1 0.0
06/04:30pm -1.0 -5.9 -3.2 85 0.7 SE 13 20 7 11 1014.5 1016.8 0.0
06/04:00pm -1.1 -5.6 -3.4 84 0.8 SSE 11 20 6 11 1014.2 1016.5 0.0
06/03:30pm 0.1 -5.0 -2.0 86 0.8 SE 15 24 8 13 1014.0 1016.3 0.0
06/03:00pm -0.1 -5.2 -2.2 86 0.8 SSE 15 20 8 11 1013.7 1016.0 0.0
06/02:30pm 0.3 -4.4 -1.6 87 0.7 SSE 13 20 7 11 1013.3 1015.6 0.0
06/02:00pm 0.5 -3.8 -1.4 87 0.7 SSE 11 19 6 10 1013.3 1015.6 0.0
06/01:30pm 0.8 -4.1 -0.6 90 0.5 SE 15 19 8 10 1013.2 1015.5 0.0
06/01:00pm 0.8 -4.1 -0.5 91 0.5 SE 15 20 8 11 1013.1 1015.3 0.0
06/12:30pm 0.7 -4.2 -0.4 92 0.4 SE 15 20 8 11 1013.1 1015.3 0.0
06/12:00pm 0.7 -4.2 -0.2 94 0.3 SE 15 20 8 11 1013.2 1015.5 0.0
06/11:30am 0.7 -3.8 0.0 95 0.3 SE 13 15 7 8 1013.2 1015.5 0.0
06/11:00am 0.7 -3.7 0.1 96 0.2 SE 13 17 7 9 1013.4 1015.7 0.0
06/10:30am 0.7 -3.3 0.6 99 0.0 SE 11 15 6 8 1013.3 1015.6 0.0
06/10:00am 0.6 -3.8 0.6 100 0.0 SE 13 15 7 8 1013.1 1015.3 0.0
06/09:30am 0.6 -4.1 0.6 100 0.0 SSE 15 20 8 11 1013.1 1015.3 0.0
06/09:00am 0.4 -4.0 0.4 100 0.0 SSE 13 19 7 10 1012.9 1015.1 4.6
06/08:30am 0.5 -3.9 0.5 100 0.0 SSE 13 17 7 9 1012.6 1014.9 4.6
06/08:00am 0.4 -2.7 0.4 100 0.0 S 6 11 3 6 1012.5 1014.8 4.6
06/07:30am 0.5 -3.9 0.5 100 0.0 SSE 13 17 7 9 1012.2 1014.4 4.6
06/07:00am 0.5 -4.3 0.5 100 0.0 SSE 15 19 8 10 1011.6 1013.9 4.6
06/06:30am 0.6 -2.6 0.6 100 0.0 E 7 9 4 5 1011.4 1013.6 4.6
06/06:00am 0.6 -1.7 0.5 99 0.0 SSE 2 9 1 5 1011.5 1013.8 4.6
06/05:30am 0.5 -1.4 0.4 99 0.0 CALM 0 0 0 0 1011.5 1013.8 4.6
06/05:00am 0.5 -2.6 0.4 99 0.0 SSW 6 9 3 5 1011.5 1013.8 4.4
06/04:30am 0.6 -1.7 0.5 99 0.0 SSW 2 11 1 6 1011.3 1013.5 4.2
06/04:00am 0.3 -1.7 0.2 99 0.0 CALM 0 0 0 0 1011.2 1013.4 4.2
06/03:30am 0.3 -3.0 0.2 99 0.0 W 7 9 4 5 1011.0 1013.2 4.2
06/03:00am -0.2 -2.6 -0.3 99 0.0 SW 2 11 1 6 1011.1 1013.3 4.2
06/02:30am -0.2 -2.3 -0.6 97 0.1 CALM 0 0 0 0 1011.1 1013.3 4.2
06/02:00am 0.5 -1.8 0.2 98 0.1 N 2 7 1 4 1011.1 1013.3 4.2
06/01:30am 1.1 -0.8 0.8 98 0.1 CALM 0 0 0 0 1011.3 1013.5 4.2
06/01:00am 1.2 -0.6 0.9 98 0.1 CALM 0 0 0 0 1011.5 1013.8 4.2
06/12:30am 1.4 -0.4 1.0 97 0.2 CALM 0 0 0 0 1011.6 1013.9 4.2
06/12:00am 1.5 -1.5 1.1 97 0.2 NNW 6 7 3 4 1011.9 1014.1 4.2
 
Date/Time
EST
Temp
°C
App
Temp
°C
Dew
Point
Rel
Hum
%
Delta-T
°C
Wind Press
QNH
hPa
Press
MSL
hPa
Rain
since 9 am
mm
Dir
 
Spd
km/h
Gust
km/h
Spd
kts
Gust
kts
05/11:30pm 1.9 -1.0 1.3 96 0.2 NNW 6 9 3 5 1012.1 1014.3 3.8
05/11:00pm 2.1 0.4 1.8 98 0.1 CALM 0 0 0 0 1012.2 1014.4 3.4
05/10:30pm 2.4 0.7 2.1 98 0.1 CALM 0 0 0 0 1012.3 1014.5 2.0
05/10:00pm 2.5 0.9 2.2 98 0.1 CALM 0 0 0 0 1012.4 1014.7 1.0
05/09:30pm 2.6 1.0 2.3 98 0.1 CALM 0 0 0 0 1012.2 1014.4 0.6
05/09:00pm 2.8 1.2 2.4 97 0.2 CALM 0 0 0 0 1012.3 1014.5 0.4
05/08:30pm 3.0 1.4 2.6 97 0.2 CALM 0 0 0 0 1012.2 1014.4 0.0
05/08:00pm 3.1 0.2 2.5 96 0.3 WSW 7 9 4 5 1012.2 1014.4 0.0
05/07:30pm 3.0 -0.3 2.4 96 0.3 WSW 9 11 5 6 1012.1 1014.3 0.0
05/07:00pm 2.6 0.9 1.7 94 0.4 CALM 0 7 0 4 1012.0 1014.2 0.0
05/06:30pm 3.4 1.8 2.2 92 0.5 CALM 0 6 0 3 1011.6 1013.9 0.0
05/06:00pm 3.9 1.0 2.7 92 0.5 WNW 7 9 4 5 1011.6 1013.9 0.0
05/05:30pm 4.2 1.6 3.2 93 0.4 WNW 6 7 3 4 1011.5 1013.8 0.0
05/05:00pm 4.6 2.4 3.4 92 0.5 W 4 7 2 4 1011.5 1013.8 0.0
05/04:30pm 4.9 3.5 3.7 92 0.5 CALM 0 0 0 0 1011.4 1013.6 0.0
05/04:00pm 5.2 2.1 3.7 90 0.7 WSW 9 11 5 6 1011.5 1013.8 0.0
05/03:30pm 5.5 2.9 4.0 90 0.7 WSW 7 11 4 6 1011.2 1013.4 0.0
05/03:00pm 5.3 1.5 3.8 90 0.7 WSW 13 15 7 8 1011.3 1013.5 0.0
05/02:30pm 5.7 1.2 4.0 89 0.8 WSW 17 20 9 11 1011.3 1013.5 0.0
05/02:00pm 6.0 1.9 4.2 88 0.8 SW 15 19 8 10 1011.2 1013.4 0.0
05/01:30pm 5.8 2.1 4.3 90 0.7 W 13 19 7 10 1011.4 1013.6 0.0
05/01:00pm 4.9 2.4 4.5 97 0.2 WSW 7 9 4 5 1011.6 1013.9 0.0
05/12:30pm 4.0 0.9 3.6 97 0.2 SW 9 9 5 5 1011.9 1014.1 0.0
05/12:00pm 3.7 0.9 3.3 97 0.2 SSW 7 9 4 5 1012.0 1014.2 0.0
05/11:30am 3.8 1.0 2.9 94 0.4 SE 7 9 4 5 1012.1 1014.3 0.0
05/11:00am 3.9 2.4 3.2 95 0.3 CALM 0 0 0 0 1012.4 1014.7 0.0
05/10:30am 3.6 2.1 2.9 95 0.3 CALM 0 7 0 4 1012.5 1014.8 0.0
05/10:00am 2.9 0.9 2.2 95 0.3 SSW 2 6 1 3 1012.7 1015.0 0.0
05/09:30am 2.6 0.5 2.0 96 0.3 S 2 7 1 4 1012.7 1015.0 0.0
05/09:00am 2.0 0.2 1.4 96 0.2 CALM 0 0 0 0 1012.4 1014.7 0.2
05/08:30am 2.1 -0.1 1.1 93 0.4 NNW 2 9 1 5 1012.3 1014.5 0.2
05/08:00am 2.3 -1.9 1.4 94 0.4 WNW 13 17 7 9 1012.3 1014.5 0.2
05/07:30am 2.1 -1.8 1.2 94 0.4 WNW 11 19 6 10 1012.3 1014.5 0.2
05/07:00am 2.1 -0.8 1.4 95 0.3 WNW 6 13 3 7 1012.4 1014.7 0.2
05/06:30am 2.1 -1.4 1.4 95 0.3 WNW 9 13 5 7 1012.2 1014.4 0.2
05/06:00am 2.0 -1.5 1.3 95 0.3 WNW 9 15 5 8 1012.1 1014.3 0.0
05/05:30am 1.8 -1.8 0.9 94 0.4 W 9 17 5 9 1012.2 1014.4 0.0
05/05:00am 1.3 -1.4 0.4 94 0.4 WNW 4 9 2 5 1012.2 1014.4 0.0
05/04:30am 1.0 -2.7 0.0 93 0.4 SW 9 13 5 7 1012.3 1014.5 0.0
05/04:00am 1.1 -2.6 -0.2 91 0.5 W 9 11 5 6 1012.4 1014.7 0.0
05/03:30am 1.3 -3.5 0.0 91 0.5 WSW 15 20 8 11 1012.7 1015.0 0.0
05/03:00am 1.4 -3.4 -0.1 90 0.6 WSW 15 22 8 12 1012.7 1015.0 0.0
05/02:30am 0.6 -3.3 -1.6 85 0.9 WSW 9 13 5 7 1012.9 1015.1 0.0
05/02:00am 0.2 -4.6 -2.8 80 1.1 W 13 17 7 9 1012.7 1015.0 0.0
05/01:30am -0.5 -5.1 -4.0 77 1.2 WSW 11 19 6 10 1012.7 1015.0 0.0
05/01:00am -0.9 -5.9 -3.9 80 1.0 WSW 13 20 7 11 1013.0 1015.2 0.0
05/12:30am -1.1 -5.7 -3.9 81 0.9 WSW 11 15 6 8 1013.3 1015.6 0.0
05/12:00am -1.4 -6.4 -4.1 82 0.9 WNW 13 17 7 9 1013.4 1015.7 0.0
 
Date/Time
EST
Temp
°C
App
Temp
°C
Dew
Point
Rel
Hum
%
Delta-T
°C
Wind Press
QNH
hPa
Press
MSL
hPa
Rain
since 9 am
mm
Dir
 
Spd
km/h
Gust
km/h
Spd
kts
Gust
kts
04/11:30pm -2.9 -6.6 -4.2 91 0.3 WSW 6 7 3 4 1013.2 1015.5 0.0
04/11:00pm -1.9 -5.7 -3.5 89 0.5 WSW 7 11 4 6 1013.1 1015.3 0.0
04/10:30pm -2.1 -6.2 -3.1 93 0.3 SW 9 13 5 7 1013.3 1015.6 0.0
04/10:00pm -1.2 -6.0 -2.6 90 0.4 WNW 13 17 7 9 1013.4 1015.7 0.0
04/09:30pm -1.2 -6.0 -2.6 90 0.4 WNW 13 17 7 9 1013.4 1015.7 0.0
04/09:00pm -1.1 -6.3 -2.5 90 0.5 WNW 15 20 8 11 1013.4 1015.7 0.0
04/08:30pm -1.3 -6.1 -2.7 90 0.4 WNW 13 15 7 8 1013.5 1015.8 0.0
04/08:00pm -0.9 -5.7 -2.2 91 0.4 WNW 13 15 7 8 1013.4 1015.7 0.0
04/07:30pm -1.5 -5.9 -2.5 93 0.3 W 11 15 6 8 1013.3 1015.6 0.0
04/07:00pm -0.9 -5.6 -2.0 92 0.4 W 13 19 7 10 1013.2 1015.5 0.0
04/06:30pm -0.8 -5.9 -2.2 90 0.5 WSW 15 19 8 10 1013.0 1015.2 0.0
04/06:00pm -0.1 -5.9 -1.7 89 0.6 W 19 22 10 12 1012.7 1015.0 0.0
04/05:30pm -0.5 -5.3 -2.4 87 0.7 SW 13 17 7 9 1012.6 1014.9 0.0
04/05:00pm 0.1 -4.7 -2.3 84 0.9 SW 13 15 7 8 1012.4 1014.7 0.0
04/04:30pm 2.5 -2.9 -1.3 76 1.5 WSW 17 22 9 12 1012.6 1014.9 0.0
04/04:00pm 3.4 -3.3 -1.3 71 1.8 WSW 24 33 13 18 1012.5 1014.8 0.0
04/03:30pm 4.5 -2.2 -1.3 66 2.3 WSW 24 32 13 17 1012.2 1014.4 0.0
04/03:00pm 4.9 -2.3 -1.8 62 2.6 WSW 26 39 14 21 1011.9 1014.1 0.0
04/02:30pm 5.2 -1.5 -0.8 65 2.4 WSW 24 33 13 18 1011.6 1013.9 0.0
04/02:00pm 5.2 -1.8 -0.2 68 2.2 WSW 26 35 14 19 1011.6 1013.9 0.0
04/01:30pm 5.4 -1.9 -0.2 67 2.3 WSW 28 41 15 22 1011.6 1013.9 0.0
04/01:00pm 4.9 -1.6 0.1 71 2.0 WSW 24 35 13 19 1011.6 1013.9 0.0
04/12:30pm 5.2 -3.4 0.0 69 2.1 WSW 35 48 19 26 1012.0 1014.2 0.0
04/12:00pm 5.7 -2.0 -0.4 65 2.5 WSW 30 44 16 24 1012.0 1014.2 0.0
04/11:30am 6.0 -1.9 1.3 72 2.0 WSW 32 52 17 28 1011.8 1014.0 0.0
04/11:00am 5.8 -1.9 2.3 78 1.5 WSW 32 50 17 27 1011.8 1014.0 0.0
04/10:52am 5.7 -2.0 2.2 78 1.5 WSW 32 50 17 27 1011.8 1014.0 0.0
04/10:30am 5.1 -2.6 2.5 83 1.1 WSW 32 46 17 25 1011.6 1013.9 0.0
04/10:00am 5.2 -2.4 3.1 86 0.9 WSW 32 46 17 25 1011.3 1013.5 0.0
04/09:30am 4.9 -4.0 3.2 89 0.8 WSW 39 61 21 33 1011.3 1013.5 0.0
04/09:24am 4.5 -2.7 3.2 91 0.6 W 30 48 16 26 1011.3 1013.5 0.0
04/09:00am 4.2 -1.0 3.5 95 0.3 W 20 32 11 17 1011.1 1013.3 1.0
04/08:30am 4.2 -1.0 3.3 94 0.4 W 20 32 11 17 1010.9 1013.1 1.0

Other Formats:

Comma delimited format used in spreadsheet applications
http://www.bom.gov.au/fwo/IDT60801/IDT60801.95959.axf

JavaScript Object Notation format (JSON) in row-major order
http://www.bom.gov.au/fwo/IDT60801/IDT60801.95959.json